sensor_id;sensor_type;location;lat;lon;timestamp;P1;durP1;ratioP1;P2;durP2;ratioP2
9712;SDS011;4895;50.926;6.870;2023-03-13T00:03:43;22.30;;;3.87;;
9712;SDS011;4895;50.926;6.870;2023-03-13T00:06:08;19.53;;;5.00;;
9712;SDS011;4895;50.926;6.870;2023-03-13T00:08:34;18.60;;;4.63;;
9712;SDS011;4895;50.926;6.870;2023-03-13T00:11:06;28.80;;;4.70;;
9712;SDS011;4895;50.926;6.870;2023-03-13T00:13:32;24.40;;;4.93;;
9712;SDS011;4895;50.926;6.870;2023-03-13T00:16:08;32.37;;;4.93;;
9712;SDS011;4895;50.926;6.870;2023-03-13T00:18:35;19.60;;;4.43;;
9712;SDS011;4895;50.926;6.870;2023-03-13T00:21:01;17.63;;;3.60;;
9712;SDS011;4895;50.926;6.870;2023-03-13T00:23:27;20.23;;;3.47;;
9712;SDS011;4895;50.926;6.870;2023-03-13T00:26:00;21.23;;;4.20;;
9712;SDS011;4895;50.926;6.870;2023-03-13T00:28:28;24.20;;;4.17;;
9712;SDS011;4895;50.926;6.870;2023-03-13T00:31:04;24.83;;;4.20;;
9712;SDS011;4895;50.926;6.870;2023-03-13T00:33:36;23.97;;;4.53;;
9712;SDS011;4895;50.926;6.870;2023-03-13T00:36:07;23.20;;;3.73;;
9712;SDS011;4895;50.926;6.870;2023-03-13T00:38:34;17.87;;;3.70;;
9712;SDS011;4895;50.926;6.870;2023-03-13T00:41:01;16.30;;;3.60;;
9712;SDS011;4895;50.926;6.870;2023-03-13T00:43:36;24.70;;;4.20;;
9712;SDS011;4895;50.926;6.870;2023-03-13T00:46:02;18.03;;;3.77;;
9712;SDS011;4895;50.926;6.870;2023-03-13T00:48:27;20.20;;;4.10;;
9712;SDS011;4895;50.926;6.870;2023-03-13T00:50:53;26.47;;;4.17;;
9712;SDS011;4895;50.926;6.870;2023-03-13T00:53:18;23.77;;;5.10;;
9712;SDS011;4895;50.926;6.870;2023-03-13T00:58:43;20.63;;;3.80;;
9712;SDS011;4895;50.926;6.870;2023-03-13T01:03:37;26.33;;;3.67;;
9712;SDS011;4895;50.926;6.870;2023-03-13T01:06:04;27.97;;;4.43;;
9712;SDS011;4895;50.926;6.870;2023-03-13T01:08:31;22.80;;;3.93;;
9712;SDS011;4895;50.926;6.870;2023-03-13T01:10:57;25.03;;;4.47;;
9712;SDS011;4895;50.926;6.870;2023-03-13T01:13:23;18.93;;;3.47;;
9712;SDS011;4895;50.926;6.870;2023-03-13T01:15:48;19.83;;;3.90;;
9712;SDS011;4895;50.926;6.870;2023-03-13T01:18:14;16.10;;;3.50;;
9712;SDS011;4895;50.926;6.870;2023-03-13T01:20:39;18.43;;;3.63;;
9712;SDS011;4895;50.926;6.870;2023-03-13T01:23:05;19.70;;;4.87;;
9712;SDS011;4895;50.926;6.870;2023-03-13T01:25:30;19.43;;;4.37;;
9712;SDS011;4895;50.926;6.870;2023-03-13T01:27:55;18.10;;;4.57;;
9712;SDS011;4895;50.926;6.870;2023-03-13T01:30:20;22.70;;;4.50;;
9712;SDS011;4895;50.926;6.870;2023-03-13T01:32:46;19.07;;;2.97;;
9712;SDS011;4895;50.926;6.870;2023-03-13T01:35:11;21.73;;;4.13;;
9712;SDS011;4895;50.926;6.870;2023-03-13T01:37:36;19.10;;;4.40;;
9712;SDS011;4895;50.926;6.870;2023-03-13T01:40:02;13.40;;;3.00;;
9712;SDS011;4895;50.926;6.870;2023-03-13T01:42:27;19.10;;;4.40;;
9712;SDS011;4895;50.926;6.870;2023-03-13T01:44:54;16.20;;;4.03;;
9712;SDS011;4895;50.926;6.870;2023-03-13T01:47:20;20.07;;;3.47;;
9712;SDS011;4895;50.926;6.870;2023-03-13T01:49:46;22.57;;;3.27;;
9712;SDS011;4895;50.926;6.870;2023-03-13T01:52:13;23.90;;;3.77;;
9712;SDS011;4895;50.926;6.870;2023-03-13T01:57:25;15.50;;;3.20;;
9712;SDS011;4895;50.926;6.870;2023-03-13T02:02:33;13.10;;;3.70;;
9712;SDS011;4895;50.926;6.870;2023-03-13T02:04:59;16.03;;;2.93;;
9712;SDS011;4895;50.926;6.870;2023-03-13T02:07:27;20.13;;;4.93;;
9712;SDS011;4895;50.926;6.870;2023-03-13T02:10:15;14.83;;;3.33;;
9712;SDS011;4895;50.926;6.870;2023-03-13T02:12:42;12.33;;;3.50;;
9712;SDS011;4895;50.926;6.870;2023-03-13T02:15:12;14.50;;;2.70;;
9712;SDS011;4895;50.926;6.870;2023-03-13T02:17:39;15.67;;;3.50;;
9712;SDS011;4895;50.926;6.870;2023-03-13T02:20:06;18.53;;;3.20;;
9712;SDS011;4895;50.926;6.870;2023-03-13T02:22:43;14.00;;;2.60;;
9712;SDS011;4895;50.926;6.870;2023-03-13T02:25:32;7.80;;;2.10;;
9712;SDS011;4895;50.926;6.870;2023-03-13T02:30:46;14.63;;;2.53;;
9712;SDS011;4895;50.926;6.870;2023-03-13T02:33:12;10.13;;;2.37;;
9712;SDS011;4895;50.926;6.870;2023-03-13T02:35:38;13.97;;;2.27;;
9712;SDS011;4895;50.926;6.870;2023-03-13T02:38:05;7.90;;;2.30;;
9712;SDS011;4895;50.926;6.870;2023-03-13T02:40:33;7.47;;;2.20;;
9712;SDS011;4895;50.926;6.870;2023-03-13T02:43:06;9.17;;;2.20;;
9712;SDS011;4895;50.926;6.870;2023-03-13T02:45:33;8.00;;;2.10;;
9712;SDS011;4895;50.926;6.870;2023-03-13T02:47:59;8.50;;;1.80;;
9712;SDS011;4895;50.926;6.870;2023-03-13T02:50:24;6.40;;;1.97;;
9712;SDS011;4895;50.926;6.870;2023-03-13T02:52:50;8.67;;;2.30;;
9712;SDS011;4895;50.926;6.870;2023-03-13T02:55:20;8.97;;;1.80;;
9712;SDS011;4895;50.926;6.870;2023-03-13T02:57:49;5.43;;;1.80;;
9712;SDS011;4895;50.926;6.870;2023-03-13T03:00:14;7.40;;;1.90;;
9712;SDS011;4895;50.926;6.870;2023-03-13T03:02:41;17.13;;;2.50;;
9712;SDS011;4895;50.926;6.870;2023-03-13T03:05:07;7.03;;;2.60;;
9712;SDS011;4895;50.926;6.870;2023-03-13T03:07:33;8.63;;;1.47;;
9712;SDS011;4895;50.926;6.870;2023-03-13T03:09:58;8.60;;;1.90;;
9712;SDS011;4895;50.926;6.870;2023-03-13T03:12:24;5.93;;;1.73;;
9712;SDS011;4895;50.926;6.870;2023-03-13T03:14:49;9.30;;;2.57;;
9712;SDS011;4895;50.926;6.870;2023-03-13T03:17:14;7.20;;;1.60;;
9712;SDS011;4895;50.926;6.870;2023-03-13T03:19:39;7.07;;;1.70;;
9712;SDS011;4895;50.926;6.870;2023-03-13T03:22:05;5.23;;;1.60;;
9712;SDS011;4895;50.926;6.870;2023-03-13T03:24:30;4.73;;;1.77;;
9712;SDS011;4895;50.926;6.870;2023-03-13T03:26:56;5.40;;;1.70;;
9712;SDS011;4895;50.926;6.870;2023-03-13T03:29:21;4.03;;;1.77;;
9712;SDS011;4895;50.926;6.870;2023-03-13T03:31:46;8.80;;;1.93;;
9712;SDS011;4895;50.926;6.870;2023-03-13T03:34:12;3.90;;;0.93;;
9712;SDS011;4895;50.926;6.870;2023-03-13T03:36:37;6.57;;;1.10;;
9712;SDS011;4895;50.926;6.870;2023-03-13T03:39:02;2.53;;;1.10;;
9712;SDS011;4895;50.926;6.870;2023-03-13T03:41:28;2.60;;;1.13;;
9712;SDS011;4895;50.926;6.870;2023-03-13T03:43:54;4.23;;;1.20;;
9712;SDS011;4895;50.926;6.870;2023-03-13T03:46:19;2.00;;;1.03;;
9712;SDS011;4895;50.926;6.870;2023-03-13T03:48:44;2.40;;;1.00;;
9712;SDS011;4895;50.926;6.870;2023-03-13T03:51:10;2.90;;;1.13;;
9712;SDS011;4895;50.926;6.870;2023-03-13T03:53:35;4.10;;;1.10;;
9712;SDS011;4895;50.926;6.870;2023-03-13T03:56:00;2.97;;;1.27;;
9712;SDS011;4895;50.926;6.870;2023-03-13T03:58:26;2.80;;;1.10;;
9712;SDS011;4895;50.926;6.870;2023-03-13T04:00:52;5.83;;;1.17;;
9712;SDS011;4895;50.926;6.870;2023-03-13T04:03:17;4.23;;;0.90;;
9712;SDS011;4895;50.926;6.870;2023-03-13T04:05:42;2.17;;;1.77;;
9712;SDS011;4895;50.926;6.870;2023-03-13T04:08:08;1.87;;;0.93;;
9712;SDS011;4895;50.926;6.870;2023-03-13T04:10:33;2.80;;;1.03;;
9712;SDS011;4895;50.926;6.870;2023-03-13T04:12:59;1.33;;;0.90;;
9712;SDS011;4895;50.926;6.870;2023-03-13T04:15:24;3.60;;;1.03;;
9712;SDS011;4895;50.926;6.870;2023-03-13T04:17:49;3.13;;;1.00;;
9712;SDS011;4895;50.926;6.870;2023-03-13T04:20:15;6.50;;;0.87;;
9712;SDS011;4895;50.926;6.870;2023-03-13T04:22:40;1.17;;;0.70;;
9712;SDS011;4895;50.926;6.870;2023-03-13T04:25:06;1.70;;;0.93;;
9712;SDS011;4895;50.926;6.870;2023-03-13T04:27:32;1.77;;;0.83;;
9712;SDS011;4895;50.926;6.870;2023-03-13T04:29:58;3.97;;;1.27;;
9712;SDS011;4895;50.926;6.870;2023-03-13T04:32:23;1.63;;;0.83;;
9712;SDS011;4895;50.926;6.870;2023-03-13T04:34:49;1.80;;;0.97;;
9712;SDS011;4895;50.926;6.870;2023-03-13T04:37:14;1.50;;;0.83;;
9712;SDS011;4895;50.926;6.870;2023-03-13T04:39:39;2.10;;;0.97;;
9712;SDS011;4895;50.926;6.870;2023-03-13T04:42:05;2.30;;;0.90;;
9712;SDS011;4895;50.926;6.870;2023-03-13T04:44:30;3.80;;;1.07;;
9712;SDS011;4895;50.926;6.870;2023-03-13T04:46:56;2.27;;;0.87;;
9712;SDS011;4895;50.926;6.870;2023-03-13T04:49:21;1.40;;;0.77;;
9712;SDS011;4895;50.926;6.870;2023-03-13T04:51:46;3.77;;;1.03;;
9712;SDS011;4895;50.926;6.870;2023-03-13T04:54:12;1.20;;;0.80;;
9712;SDS011;4895;50.926;6.870;2023-03-13T04:56:37;5.40;;;1.10;;
9712;SDS011;4895;50.926;6.870;2023-03-13T04:59:02;3.63;;;0.90;;
9712;SDS011;4895;50.926;6.870;2023-03-13T05:01:28;1.57;;;1.00;;
9712;SDS011;4895;50.926;6.870;2023-03-13T05:03:53;1.70;;;0.87;;
9712;SDS011;4895;50.926;6.870;2023-03-13T05:06:18;2.10;;;0.90;;
9712;SDS011;4895;50.926;6.870;2023-03-13T05:08:43;1.93;;;0.90;;
9712;SDS011;4895;50.926;6.870;2023-03-13T05:11:09;1.10;;;0.90;;
9712;SDS011;4895;50.926;6.870;2023-03-13T05:13:34;1.40;;;0.90;;
9712;SDS011;4895;50.926;6.870;2023-03-13T05:16:00;2.77;;;1.03;;
9712;SDS011;4895;50.926;6.870;2023-03-13T05:18:25;1.60;;;0.90;;
9712;SDS011;4895;50.926;6.870;2023-03-13T05:20:51;2.90;;;0.83;;
9712;SDS011;4895;50.926;6.870;2023-03-13T05:23:16;3.33;;;0.90;;
9712;SDS011;4895;50.926;6.870;2023-03-13T05:25:41;3.03;;;1.00;;
9712;SDS011;4895;50.926;6.870;2023-03-13T05:28:07;1.80;;;1.07;;
9712;SDS011;4895;50.926;6.870;2023-03-13T05:30:32;1.60;;;0.97;;
9712;SDS011;4895;50.926;6.870;2023-03-13T05:32:57;1.23;;;0.80;;
9712;SDS011;4895;50.926;6.870;2023-03-13T05:35:23;2.03;;;1.07;;
9712;SDS011;4895;50.926;6.870;2023-03-13T05:37:48;1.87;;;1.00;;
9712;SDS011;4895;50.926;6.870;2023-03-13T05:40:13;2.40;;;1.07;;
9712;SDS011;4895;50.926;6.870;2023-03-13T05:42:39;2.90;;;1.13;;
9712;SDS011;4895;50.926;6.870;2023-03-13T05:45:04;3.87;;;1.23;;
9712;SDS011;4895;50.926;6.870;2023-03-13T05:47:30;1.60;;;1.20;;
9712;SDS011;4895;50.926;6.870;2023-03-13T05:49:55;2.33;;;1.20;;
9712;SDS011;4895;50.926;6.870;2023-03-13T05:52:21;1.70;;;0.90;;
9712;SDS011;4895;50.926;6.870;2023-03-13T05:54:46;1.67;;;1.30;;
9712;SDS011;4895;50.926;6.870;2023-03-13T05:57:11;2.03;;;1.23;;
9712;SDS011;4895;50.926;6.870;2023-03-13T05:59:37;1.77;;;0.97;;
9712;SDS011;4895;50.926;6.870;2023-03-13T06:02:02;2.37;;;1.30;;
9712;SDS011;4895;50.926;6.870;2023-03-13T06:04:28;2.07;;;1.10;;
9712;SDS011;4895;50.926;6.870;2023-03-13T06:06:53;2.17;;;1.30;;
9712;SDS011;4895;50.926;6.870;2023-03-13T06:09:19;1.20;;;0.90;;
9712;SDS011;4895;50.926;6.870;2023-03-13T06:11:44;1.33;;;1.00;;
9712;SDS011;4895;50.926;6.870;2023-03-13T06:14:09;1.83;;;1.17;;
9712;SDS011;4895;50.926;6.870;2023-03-13T06:16:35;1.60;;;1.10;;
9712;SDS011;4895;50.926;6.870;2023-03-13T06:19:00;1.93;;;1.07;;
9712;SDS011;4895;50.926;6.870;2023-03-13T06:21:26;2.67;;;1.30;;
9712;SDS011;4895;50.926;6.870;2023-03-13T06:23:51;1.57;;;1.00;;
9712;SDS011;4895;50.926;6.870;2023-03-13T06:26:19;1.50;;;1.00;;
9712;SDS011;4895;50.926;6.870;2023-03-13T06:28:44;1.30;;;1.00;;
9712;SDS011;4895;50.926;6.870;2023-03-13T06:31:09;2.07;;;1.10;;
9712;SDS011;4895;50.926;6.870;2023-03-13T06:33:35;1.83;;;1.27;;
9712;SDS011;4895;50.926;6.870;2023-03-13T06:36:01;2.20;;;1.03;;
9712;SDS011;4895;50.926;6.870;2023-03-13T06:38:27;2.07;;;1.30;;
9712;SDS011;4895;50.926;6.870;2023-03-13T06:40:53;1.93;;;1.10;;
9712;SDS011;4895;50.926;6.870;2023-03-13T06:43:19;2.17;;;1.30;;
9712;SDS011;4895;50.926;6.870;2023-03-13T06:45:44;4.23;;;1.50;;
9712;SDS011;4895;50.926;6.870;2023-03-13T06:48:10;1.80;;;1.10;;
9712;SDS011;4895;50.926;6.870;2023-03-13T06:50:38;3.73;;;1.10;;
9712;SDS011;4895;50.926;6.870;2023-03-13T06:53:04;2.20;;;1.30;;
9712;SDS011;4895;50.926;6.870;2023-03-13T06:55:30;4.30;;;1.27;;
9712;SDS011;4895;50.926;6.870;2023-03-13T06:57:55;1.70;;;1.10;;
9712;SDS011;4895;50.926;6.870;2023-03-13T07:00:20;3.33;;;1.47;;
9712;SDS011;4895;50.926;6.870;2023-03-13T07:02:46;4.73;;;1.13;;
9712;SDS011;4895;50.926;6.870;2023-03-13T07:05:11;3.03;;;1.60;;
9712;SDS011;4895;50.926;6.870;2023-03-13T07:07:38;2.20;;;1.40;;
9712;SDS011;4895;50.926;6.870;2023-03-13T07:10:04;3.20;;;1.30;;
9712;SDS011;4895;50.926;6.870;2023-03-13T07:12:30;4.30;;;1.87;;
9712;SDS011;4895;50.926;6.870;2023-03-13T07:14:55;4.47;;;1.60;;
9712;SDS011;4895;50.926;6.870;2023-03-13T07:17:20;5.33;;;1.87;;
9712;SDS011;4895;50.926;6.870;2023-03-13T07:19:45;5.73;;;1.87;;
9712;SDS011;4895;50.926;6.870;2023-03-13T07:22:11;4.63;;;1.90;;
9712;SDS011;4895;50.926;6.870;2023-03-13T07:24:36;6.80;;;2.33;;
9712;SDS011;4895;50.926;6.870;2023-03-13T07:27:01;5.00;;;2.47;;
9712;SDS011;4895;50.926;6.870;2023-03-13T07:29:27;6.77;;;2.03;;
9712;SDS011;4895;50.926;6.870;2023-03-13T07:31:52;5.10;;;2.03;;
9712;SDS011;4895;50.926;6.870;2023-03-13T07:34:17;4.40;;;2.00;;
9712;SDS011;4895;50.926;6.870;2023-03-13T07:36:43;4.33;;;1.80;;
9712;SDS011;4895;50.926;6.870;2023-03-13T07:39:08;8.20;;;2.07;;
9712;SDS011;4895;50.926;6.870;2023-03-13T07:41:33;6.67;;;2.23;;
9712;SDS011;4895;50.926;6.870;2023-03-13T07:43:59;5.27;;;2.10;;
9712;SDS011;4895;50.926;6.870;2023-03-13T07:46:24;7.17;;;2.30;;
9712;SDS011;4895;50.926;6.870;2023-03-13T07:48:49;7.57;;;2.70;;
9712;SDS011;4895;50.926;6.870;2023-03-13T07:51:17;11.27;;;2.50;;
9712;SDS011;4895;50.926;6.870;2023-03-13T07:53:47;11.97;;;2.90;;
9712;SDS011;4895;50.926;6.870;2023-03-13T07:56:13;11.67;;;2.47;;
9712;SDS011;4895;50.926;6.870;2023-03-13T07:58:40;9.07;;;2.00;;
9712;SDS011;4895;50.926;6.870;2023-03-13T08:01:16;4.87;;;2.03;;
9712;SDS011;4895;50.926;6.870;2023-03-13T08:03:46;5.63;;;2.33;;
9712;SDS011;4895;50.926;6.870;2023-03-13T08:06:18;5.00;;;2.23;;
9712;SDS011;4895;50.926;6.870;2023-03-13T08:08:45;11.40;;;2.87;;
9712;SDS011;4895;50.926;6.870;2023-03-13T08:11:11;12.43;;;2.60;;
9712;SDS011;4895;50.926;6.870;2023-03-13T08:13:40;6.47;;;3.17;;
9712;SDS011;4895;50.926;6.870;2023-03-13T08:16:07;5.60;;;2.20;;
9712;SDS011;4895;50.926;6.870;2023-03-13T08:18:33;9.63;;;2.40;;
9712;SDS011;4895;50.926;6.870;2023-03-13T08:21:00;4.20;;;2.27;;
9712;SDS011;4895;50.926;6.870;2023-03-13T08:23:29;9.40;;;2.73;;
9712;SDS011;4895;50.926;6.870;2023-03-13T08:25:55;6.23;;;2.30;;
9712;SDS011;4895;50.926;6.870;2023-03-13T08:28:20;7.23;;;3.43;;
9712;SDS011;4895;50.926;6.870;2023-03-13T08:30:45;6.63;;;2.83;;
9712;SDS011;4895;50.926;6.870;2023-03-13T08:33:10;7.63;;;2.77;;
9712;SDS011;4895;50.926;6.870;2023-03-13T08:35:36;6.07;;;3.10;;
9712;SDS011;4895;50.926;6.870;2023-03-13T08:38:01;4.67;;;2.90;;
9712;SDS011;4895;50.926;6.870;2023-03-13T08:40:26;8.80;;;2.20;;
9712;SDS011;4895;50.926;6.870;2023-03-13T08:42:52;6.77;;;2.83;;
9712;SDS011;4895;50.926;6.870;2023-03-13T08:45:18;7.57;;;2.53;;
9712;SDS011;4895;50.926;6.870;2023-03-13T08:47:43;9.00;;;3.10;;
9712;SDS011;4895;50.926;6.870;2023-03-13T08:50:09;8.93;;;3.00;;
9712;SDS011;4895;50.926;6.870;2023-03-13T08:52:34;5.87;;;2.30;;
9712;SDS011;4895;50.926;6.870;2023-03-13T08:54:59;9.60;;;2.80;;
9712;SDS011;4895;50.926;6.870;2023-03-13T08:57:25;14.17;;;3.10;;
9712;SDS011;4895;50.926;6.870;2023-03-13T08:59:50;7.17;;;2.77;;
9712;SDS011;4895;50.926;6.870;2023-03-13T09:02:15;5.50;;;2.63;;
9712;SDS011;4895;50.926;6.870;2023-03-13T09:04:44;6.63;;;2.53;;
9712;SDS011;4895;50.926;6.870;2023-03-13T09:07:09;4.00;;;2.80;;
9712;SDS011;4895;50.926;6.870;2023-03-13T09:09:35;9.20;;;3.60;;
9712;SDS011;4895;50.926;6.870;2023-03-13T09:12:00;4.70;;;2.23;;
9712;SDS011;4895;50.926;6.870;2023-03-13T09:14:25;7.80;;;2.83;;
9712;SDS011;4895;50.926;6.870;2023-03-13T09:16:50;6.37;;;2.70;;
9712;SDS011;4895;50.926;6.870;2023-03-13T09:19:16;6.47;;;2.30;;
9712;SDS011;4895;50.926;6.870;2023-03-13T09:21:41;5.03;;;2.17;;
9712;SDS011;4895;50.926;6.870;2023-03-13T09:24:07;5.00;;;2.43;;
9712;SDS011;4895;50.926;6.870;2023-03-13T09:26:32;7.33;;;2.40;;
9712;SDS011;4895;50.926;6.870;2023-03-13T09:28:58;4.17;;;2.10;;
9712;SDS011;4895;50.926;6.870;2023-03-13T09:31:24;4.50;;;2.03;;
9712;SDS011;4895;50.926;6.870;2023-03-13T09:33:50;4.20;;;2.20;;
9712;SDS011;4895;50.926;6.870;2023-03-13T09:36:16;4.07;;;2.07;;
9712;SDS011;4895;50.926;6.870;2023-03-13T09:38:43;6.67;;;2.17;;
9712;SDS011;4895;50.926;6.870;2023-03-13T09:49:15;4.40;;;1.90;;
9712;SDS011;4895;50.926;6.870;2023-03-13T09:52:03;2.93;;;1.70;;
9712;SDS011;4895;50.926;6.870;2023-03-13T09:57:13;3.77;;;1.70;;
9712;SDS011;4895;50.926;6.870;2023-03-13T09:59:44;6.20;;;1.60;;
9712;SDS011;4895;50.926;6.870;2023-03-13T10:02:19;2.87;;;1.57;;
9712;SDS011;4895;50.926;6.870;2023-03-13T10:04:48;4.70;;;1.67;;
9712;SDS011;4895;50.926;6.870;2023-03-13T10:07:17;5.00;;;1.47;;
9712;SDS011;4895;50.926;6.870;2023-03-13T10:09:44;3.73;;;1.80;;
9712;SDS011;4895;50.926;6.870;2023-03-13T10:12:23;5.07;;;1.47;;
9712;SDS011;4895;50.926;6.870;2023-03-13T10:17:39;4.80;;;1.90;;
9712;SDS011;4895;50.926;6.870;2023-03-13T10:20:24;2.13;;;1.60;;
9712;SDS011;4895;50.926;6.870;2023-03-13T10:25:37;2.00;;;1.20;;
9712;SDS011;4895;50.926;6.870;2023-03-13T10:28:03;3.03;;;1.30;;
9712;SDS011;4895;50.926;6.870;2023-03-13T10:32:56;2.63;;;1.17;;
9712;SDS011;4895;50.926;6.870;2023-03-13T10:35:24;11.47;;;1.83;;
9712;SDS011;4895;50.926;6.870;2023-03-13T10:38:00;3.53;;;1.40;;
9712;SDS011;4895;50.926;6.870;2023-03-13T10:40:27;2.70;;;1.30;;
9712;SDS011;4895;50.926;6.870;2023-03-13T10:42:59;2.40;;;1.17;;
9712;SDS011;4895;50.926;6.870;2023-03-13T10:45:26;3.10;;;1.30;;
9712;SDS011;4895;50.926;6.870;2023-03-13T10:47:59;2.30;;;1.20;;
9712;SDS011;4895;50.926;6.870;2023-03-13T10:50:26;5.40;;;1.50;;
9712;SDS011;4895;50.926;6.870;2023-03-13T10:52:56;4.73;;;2.07;;
9712;SDS011;4895;50.926;6.870;2023-03-13T10:55:22;6.63;;;1.10;;
9712;SDS011;4895;50.926;6.870;2023-03-13T11:02:57;2.20;;;1.00;;
9712;SDS011;4895;50.926;6.870;2023-03-13T11:07:52;1.80;;;1.00;;
9712;SDS011;4895;50.926;6.870;2023-03-13T11:12:45;2.47;;;0.90;;
9712;SDS011;4895;50.926;6.870;2023-03-13T11:17:46;2.07;;;1.00;;
9712;SDS011;4895;50.926;6.870;2023-03-13T11:20:20;2.60;;;1.10;;
9712;SDS011;4895;50.926;6.870;2023-03-13T11:28:46;2.23;;;0.83;;
9712;SDS011;4895;50.926;6.870;2023-03-13T11:47:11;2.80;;;0.90;;
9712;SDS011;4895;50.926;6.870;2023-03-13T11:49:50;1.40;;;0.77;;
9712;SDS011;4895;50.926;6.870;2023-03-13T11:52:34;1.20;;;0.70;;
9712;SDS011;4895;50.926;6.870;2023-03-13T12:03:18;1.50;;;0.80;;
9712;SDS011;4895;50.926;6.870;2023-03-13T12:05:56;1.10;;;0.80;;
9712;SDS011;4895;50.926;6.870;2023-03-13T12:08:31;1.10;;;0.70;;
9712;SDS011;4895;50.926;6.870;2023-03-13T12:16:41;2.30;;;1.00;;
9712;SDS011;4895;50.926;6.870;2023-03-13T12:19:20;1.77;;;1.00;;
9712;SDS011;4895;50.926;6.870;2023-03-13T12:21:49;1.97;;;1.00;;
9712;SDS011;4895;50.926;6.870;2023-03-13T12:24:33;1.53;;;0.90;;
9712;SDS011;4895;50.926;6.870;2023-03-13T12:27:09;1.50;;;0.83;;
9712;SDS011;4895;50.926;6.870;2023-03-13T12:43:36;1.70;;;0.90;;
9712;SDS011;4895;50.926;6.870;2023-03-13T12:48:24;2.23;;;0.90;;
9712;SDS011;4895;50.926;6.870;2023-03-13T12:57:16;3.03;;;1.10;;
9712;SDS011;4895;50.926;6.870;2023-03-13T12:59:53;7.57;;;1.13;;
9712;SDS011;4895;50.926;6.870;2023-03-13T13:02:21;3.00;;;1.13;;
9712;SDS011;4895;50.926;6.870;2023-03-13T13:04:49;7.10;;;1.10;;
9712;SDS011;4895;50.926;6.870;2023-03-13T13:07:31;2.20;;;1.17;;
9712;SDS011;4895;50.926;6.870;2023-03-13T13:12:36;2.20;;;0.90;;
9712;SDS011;4895;50.926;6.870;2023-03-13T13:15:04;2.17;;;1.20;;
9712;SDS011;4895;50.926;6.870;2023-03-13T13:23:17;2.47;;;1.40;;
9712;SDS011;4895;50.926;6.870;2023-03-13T13:25:45;3.10;;;1.00;;
9712;SDS011;4895;50.926;6.870;2023-03-13T13:28:32;2.33;;;1.37;;
9712;SDS011;4895;50.926;6.870;2023-03-13T13:30:59;1.60;;;1.10;;
9712;SDS011;4895;50.926;6.870;2023-03-13T13:38:48;2.20;;;1.50;;
9712;SDS011;4895;50.926;6.870;2023-03-13T13:43:39;2.27;;;1.30;;
9712;SDS011;4895;50.926;6.870;2023-03-13T13:46:27;3.17;;;1.33;;
9712;SDS011;4895;50.926;6.870;2023-03-13T13:51:32;3.63;;;1.40;;
9712;SDS011;4895;50.926;6.870;2023-03-13T13:54:02;2.00;;;1.30;;
9712;SDS011;4895;50.926;6.870;2023-03-13T13:56:30;2.23;;;1.30;;
9712;SDS011;4895;50.926;6.870;2023-03-13T13:58:59;2.50;;;1.40;;
9712;SDS011;4895;50.926;6.870;2023-03-13T14:01:27;5.60;;;1.50;;
9712;SDS011;4895;50.926;6.870;2023-03-13T14:03:53;1.83;;;1.00;;
9712;SDS011;4895;50.926;6.870;2023-03-13T14:06:28;2.10;;;1.30;;
9712;SDS011;4895;50.926;6.870;2023-03-13T14:08:56;1.53;;;1.00;;
9712;SDS011;4895;50.926;6.870;2023-03-13T14:11:44;1.87;;;1.10;;
9712;SDS011;4895;50.926;6.870;2023-03-13T14:14:19;1.53;;;1.10;;
9712;SDS011;4895;50.926;6.870;2023-03-13T14:16:49;1.83;;;0.90;;
9712;SDS011;4895;50.926;6.870;2023-03-13T14:19:26;1.93;;;1.00;;
9712;SDS011;4895;50.926;6.870;2023-03-13T14:22:01;1.63;;;0.90;;
9712;SDS011;4895;50.926;6.870;2023-03-13T14:24:28;2.10;;;1.00;;
9712;SDS011;4895;50.926;6.870;2023-03-13T14:26:53;3.33;;;1.10;;
9712;SDS011;4895;50.926;6.870;2023-03-13T14:29:19;1.57;;;1.00;;
9712;SDS011;4895;50.926;6.870;2023-03-13T14:31:51;1.73;;;0.90;;
9712;SDS011;4895;50.926;6.870;2023-03-13T14:34:16;1.73;;;1.17;;
9712;SDS011;4895;50.926;6.870;2023-03-13T14:36:48;1.73;;;1.20;;
9712;SDS011;4895;50.926;6.870;2023-03-13T14:39:37;1.20;;;0.90;;
9712;SDS011;4895;50.926;6.870;2023-03-13T14:42:12;1.40;;;1.00;;
9712;SDS011;4895;50.926;6.870;2023-03-13T14:44:39;1.67;;;1.10;;
9712;SDS011;4895;50.926;6.870;2023-03-13T14:47:10;1.30;;;0.80;;
9712;SDS011;4895;50.926;6.870;2023-03-13T14:49:45;1.47;;;0.87;;
9712;SDS011;4895;50.926;6.870;2023-03-13T14:52:32;1.70;;;0.93;;
9712;SDS011;4895;50.926;6.870;2023-03-13T14:54:58;1.40;;;1.10;;
9712;SDS011;4895;50.926;6.870;2023-03-13T14:57:32;1.53;;;0.93;;
9712;SDS011;4895;50.926;6.870;2023-03-13T15:05:44;1.43;;;0.83;;
9712;SDS011;4895;50.926;6.870;2023-03-13T15:08:14;1.37;;;0.97;;
9712;SDS011;4895;50.926;6.870;2023-03-13T15:10:39;1.40;;;0.80;;
9712;SDS011;4895;50.926;6.870;2023-03-13T15:15:39;1.70;;;0.77;;
9712;SDS011;4895;50.926;6.870;2023-03-13T15:18:24;1.93;;;0.80;;
9712;SDS011;4895;50.926;6.870;2023-03-13T15:23:39;1.30;;;0.87;;
9712;SDS011;4895;50.926;6.870;2023-03-13T15:26:06;1.40;;;0.93;;
9712;SDS011;4895;50.926;6.870;2023-03-13T15:28:31;1.60;;;0.90;;
9712;SDS011;4895;50.926;6.870;2023-03-13T15:30:57;1.30;;;0.70;;
9712;SDS011;4895;50.926;6.870;2023-03-13T15:33:23;1.13;;;0.70;;
9712;SDS011;4895;50.926;6.870;2023-03-13T15:35:50;1.50;;;0.80;;
9712;SDS011;4895;50.926;6.870;2023-03-13T15:38:17;1.40;;;1.00;;
9712;SDS011;4895;50.926;6.870;2023-03-13T15:40:43;3.00;;;0.90;;
9712;SDS011;4895;50.926;6.870;2023-03-13T15:43:09;2.43;;;0.80;;
9712;SDS011;4895;50.926;6.870;2023-03-13T15:45:35;1.53;;;0.80;;
9712;SDS011;4895;50.926;6.870;2023-03-13T15:48:01;1.60;;;1.20;;
9712;SDS011;4895;50.926;6.870;2023-03-13T15:50:27;5.50;;;1.20;;
9712;SDS011;4895;50.926;6.870;2023-03-13T15:52:56;3.40;;;1.00;;
9712;SDS011;4895;50.926;6.870;2023-03-13T15:55:23;2.93;;;1.20;;
9712;SDS011;4895;50.926;6.870;2023-03-13T15:57:50;3.50;;;1.30;;
9712;SDS011;4895;50.926;6.870;2023-03-13T16:02:50;3.80;;;1.50;;
9712;SDS011;4895;50.926;6.870;2023-03-13T16:05:15;3.63;;;1.23;;
9712;SDS011;4895;50.926;6.870;2023-03-13T16:07:43;5.10;;;1.57;;
9712;SDS011;4895;50.926;6.870;2023-03-13T16:10:14;4.27;;;1.37;;
9712;SDS011;4895;50.926;6.870;2023-03-13T16:12:41;5.13;;;1.40;;
9712;SDS011;4895;50.926;6.870;2023-03-13T16:15:07;4.30;;;1.73;;
9712;SDS011;4895;50.926;6.870;2023-03-13T16:17:32;2.90;;;1.37;;
9712;SDS011;4895;50.926;6.870;2023-03-13T16:19:58;4.93;;;1.67;;
9712;SDS011;4895;50.926;6.870;2023-03-13T16:22:23;2.80;;;1.47;;
9712;SDS011;4895;50.926;6.870;2023-03-13T16:24:48;3.23;;;1.77;;
9712;SDS011;4895;50.926;6.870;2023-03-13T16:27:14;9.10;;;1.30;;
9712;SDS011;4895;50.926;6.870;2023-03-13T16:29:41;4.77;;;1.53;;
9712;SDS011;4895;50.926;6.870;2023-03-13T16:32:08;10.10;;;1.80;;
9712;SDS011;4895;50.926;6.870;2023-03-13T16:34:35;4.13;;;1.40;;
9712;SDS011;4895;50.926;6.870;2023-03-13T16:37:01;4.17;;;1.83;;
9712;SDS011;4895;50.926;6.870;2023-03-13T16:39:26;7.27;;;1.87;;
9712;SDS011;4895;50.926;6.870;2023-03-13T16:41:51;9.40;;;1.70;;
9712;SDS011;4895;50.926;6.870;2023-03-13T16:44:16;5.37;;;1.73;;
9712;SDS011;4895;50.926;6.870;2023-03-13T16:46:42;3.63;;;1.27;;
9712;SDS011;4895;50.926;6.870;2023-03-13T16:49:11;4.97;;;1.80;;
9712;SDS011;4895;50.926;6.870;2023-03-13T16:51:37;4.20;;;1.70;;
9712;SDS011;4895;50.926;6.870;2023-03-13T16:54:03;4.50;;;1.57;;
9712;SDS011;4895;50.926;6.870;2023-03-13T16:56:31;5.20;;;1.93;;
9712;SDS011;4895;50.926;6.870;2023-03-13T16:59:02;5.03;;;1.50;;
9712;SDS011;4895;50.926;6.870;2023-03-13T17:01:29;4.37;;;1.80;;
9712;SDS011;4895;50.926;6.870;2023-03-13T17:03:55;5.50;;;1.87;;
9712;SDS011;4895;50.926;6.870;2023-03-13T17:06:26;4.77;;;1.70;;
9712;SDS011;4895;50.926;6.870;2023-03-13T17:08:52;12.03;;;2.03;;
9712;SDS011;4895;50.926;6.870;2023-03-13T17:11:18;4.93;;;2.07;;
9712;SDS011;4895;50.926;6.870;2023-03-13T17:13:46;3.97;;;1.40;;
9712;SDS011;4895;50.926;6.870;2023-03-13T17:16:14;4.77;;;1.70;;
9712;SDS011;4895;50.926;6.870;2023-03-13T17:18:44;4.30;;;1.60;;
9712;SDS011;4895;50.926;6.870;2023-03-13T17:21:12;6.27;;;1.87;;
9712;SDS011;4895;50.926;6.870;2023-03-13T17:23:41;10.73;;;1.80;;
9712;SDS011;4895;50.926;6.870;2023-03-13T17:26:14;5.90;;;1.50;;
9712;SDS011;4895;50.926;6.870;2023-03-13T17:28:40;7.03;;;2.13;;
9712;SDS011;4895;50.926;6.870;2023-03-13T17:31:07;3.30;;;1.70;;
9712;SDS011;4895;50.926;6.870;2023-03-13T17:33:33;8.33;;;1.50;;